createdAt,value
2023-04-26T00:02:43.816Z,10.51
2023-04-26T00:05:46.834Z,10.46
2023-04-26T00:08:49.436Z,10.51
2023-04-26T00:11:52.114Z,10.46
2023-04-26T00:14:54.841Z,10.43
2023-04-26T00:17:57.306Z,10.44
2023-04-26T00:20:59.826Z,10.37
2023-04-26T00:24:02.284Z,10.45
2023-04-26T00:27:10.278Z,10.50
2023-04-26T00:30:13.368Z,10.54
2023-04-26T00:33:15.952Z,10.50
2023-04-26T00:36:19.630Z,10.52
2023-04-26T00:39:22.583Z,10.44
2023-04-26T00:42:25.009Z,10.45
2023-04-26T00:45:27.513Z,10.46
2023-04-26T00:48:30.558Z,10.49
2023-04-26T00:51:32.950Z,10.43
2023-04-26T00:54:35.508Z,10.45
2023-04-26T00:57:38.056Z,10.33
2023-04-26T01:00:40.558Z,10.38
2023-04-26T01:03:44.730Z,10.46
2023-04-26T01:06:47.459Z,10.24
2023-04-26T01:09:50.700Z,10.21
2023-04-26T01:12:53.052Z,10.13
2023-04-26T01:15:55.846Z,10.01
2023-04-26T01:18:58.439Z,10.02
2023-04-26T01:22:01.103Z,9.89
2023-04-26T01:25:04.731Z,9.97
2023-04-26T01:28:08.777Z,9.85
2023-04-26T01:31:11.183Z,9.74
2023-04-26T01:34:13.894Z,9.66
2023-04-26T01:37:16.545Z,9.74
2023-04-26T01:40:19.155Z,9.67
2023-04-26T01:43:23.114Z,9.68
2023-04-26T01:46:25.968Z,9.70
2023-04-26T01:49:28.460Z,9.67
2023-04-26T01:52:30.824Z,9.70
2023-04-26T01:55:34.246Z,9.55
2023-04-26T01:58:36.650Z,9.54
2023-04-26T02:01:41.196Z,9.48
2023-04-26T02:04:46.176Z,9.42
2023-04-26T02:07:48.775Z,9.38
2023-04-26T02:10:51.142Z,9.42
2023-04-26T02:13:54.660Z,9.43
2023-04-26T02:16:57.236Z,9.23
2023-04-26T02:19:59.787Z,9.34
2023-04-26T02:23:02.171Z,9.31
2023-04-26T02:26:05.042Z,9.28
2023-04-26T02:29:07.591Z,9.31
2023-04-26T02:32:10.080Z,9.24
2023-04-26T02:35:12.540Z,9.15
2023-04-26T02:38:15.646Z,9.07
2023-04-26T02:41:18.318Z,8.99
2023-04-26T02:44:20.945Z,9.12
2023-04-26T02:47:23.640Z,9.13
2023-04-26T02:50:26.277Z,9.06
2023-04-26T02:53:28.921Z,9.05
2023-04-26T02:56:31.542Z,9.04
2023-04-26T02:59:34.049Z,9.08
2023-04-26T03:02:37.566Z,9.02
2023-04-26T03:05:40.468Z,8.98
2023-04-26T03:08:43.153Z,9.00
2023-04-26T03:11:46.467Z,8.94
2023-04-26T03:14:50.254Z,9.03
2023-04-26T03:17:53.448Z,8.88
2023-04-26T03:20:57.212Z,8.88
2023-04-26T03:24:00.072Z,8.90
2023-04-26T03:27:02.699Z,8.82
2023-04-26T03:30:05.971Z,8.88
2023-04-26T03:33:10.303Z,8.85
2023-04-26T03:36:12.991Z,8.89
2023-04-26T03:39:16.990Z,8.81
2023-04-26T03:42:22.785Z,8.85
2023-04-26T03:45:26.922Z,8.77
2023-04-26T03:48:29.335Z,8.72
2023-04-26T03:51:31.767Z,8.68
2023-04-26T03:54:37.296Z,8.65
2023-04-26T03:57:39.756Z,8.73
2023-04-26T04:00:45.031Z,8.62
2023-04-26T04:03:47.917Z,8.67
2023-04-26T04:06:51.346Z,8.88
2023-04-26T04:09:54.100Z,8.70
2023-04-26T04:12:56.751Z,8.67
2023-04-26T04:15:59.250Z,8.78
2023-04-26T04:19:01.888Z,8.77
2023-04-26T04:22:04.759Z,8.79
2023-04-26T04:25:10.575Z,8.86
2023-04-26T04:28:14.821Z,8.89
2023-04-26T04:31:17.750Z,8.78
2023-04-26T04:34:20.605Z,8.73
2023-04-26T04:37:25.909Z,8.89
2023-04-26T04:40:28.362Z,9.07
2023-04-26T04:43:32.014Z,9.18
2023-04-26T04:46:34.694Z,9.09
2023-04-26T04:49:37.634Z,9.22
2023-04-26T04:52:40.277Z,9.27
2023-04-26T04:55:42.726Z,9.35
2023-04-26T04:58:47.860Z,9.44
2023-04-26T05:01:51.752Z,9.51
2023-04-26T05:04:55.454Z,9.42
2023-04-26T05:07:57.994Z,9.48
2023-04-26T05:11:00.688Z,9.60
2023-04-26T05:14:03.373Z,9.55
2023-04-26T05:17:06.653Z,9.58
2023-04-26T05:20:09.508Z,9.60
2023-04-26T05:23:12.162Z,9.57
2023-04-26T05:26:15.889Z,9.73
2023-04-26T05:29:31.499Z,9.82
2023-04-26T05:32:42.843Z,9.88
2023-04-26T05:36:11.738Z,9.71
2023-04-26T05:39:14.368Z,9.76
2023-04-26T05:42:17.994Z,9.94
2023-04-26T05:45:21.163Z,9.95
2023-04-26T05:48:25.624Z,10.04
2023-04-26T05:51:28.231Z,10.04
2023-04-26T05:54:30.790Z,10.13
2023-04-26T05:57:34.819Z,10.19
2023-04-26T06:00:37.673Z,10.24
2023-04-26T06:03:40.244Z,10.36
2023-04-26T06:06:43.089Z,10.40
2023-04-26T06:09:45.879Z,10.39
2023-04-26T06:12:48.500Z,10.43
2023-04-26T06:15:53.697Z,10.50
2023-04-26T06:18:57.023Z,10.66
2023-04-26T06:21:59.616Z,10.87
2023-04-26T06:25:02.568Z,10.98
2023-04-26T06:28:05.155Z,11.06
2023-04-26T06:31:07.878Z,10.90
2023-04-26T06:34:12.210Z,11.06
2023-04-26T06:37:14.964Z,11.06
2023-04-26T06:40:18.831Z,11.07
2023-04-26T06:43:21.495Z,11.10
2023-04-26T06:46:33.365Z,11.23
2023-04-26T06:49:37.999Z,11.30
2023-04-26T06:52:42.784Z,11.51
2023-04-26T06:55:46.192Z,11.54
2023-04-26T06:59:05.521Z,11.69
2023-04-26T07:02:08.251Z,11.92
2023-04-26T07:05:11.017Z,12.01
2023-04-26T07:08:13.467Z,12.06
2023-04-26T07:11:16.395Z,12.31
2023-04-26T07:14:19.160Z,12.12
2023-04-26T07:17:22.315Z,12.28
2023-04-26T07:20:24.736Z,12.50
2023-04-26T07:23:27.179Z,12.43
2023-04-26T07:26:29.913Z,12.77
2023-04-26T07:29:32.301Z,13.11
2023-04-26T07:32:35.248Z,13.40
2023-04-26T07:35:37.806Z,13.51
2023-04-26T07:38:40.303Z,13.51
2023-04-26T07:41:44.095Z,13.87
2023-04-26T07:44:48.494Z,14.28
2023-04-26T07:47:50.956Z,14.06
2023-04-26T07:50:53.427Z,14.36
2023-04-26T07:53:56.062Z,14.36
2023-04-26T07:56:58.523Z,14.19
2023-04-26T08:00:01.257Z,14.45
2023-04-26T08:03:04.029Z,14.46
2023-04-26T08:06:08.882Z,14.30
2023-04-26T08:09:11.570Z,14.35
2023-04-26T08:12:14.147Z,14.59
2023-04-26T08:15:16.812Z,14.87
2023-04-26T08:18:19.488Z,15.13
2023-04-26T08:21:22.032Z,15.21
2023-04-26T08:24:24.464Z,15.12
2023-04-26T08:27:28.378Z,15.48
2023-04-26T08:30:30.914Z,15.17
2023-04-26T08:33:33.446Z,15.29
2023-04-26T08:36:39.653Z,15.49
2023-04-26T08:39:42.169Z,15.40
2023-04-26T08:42:44.857Z,15.38
2023-04-26T08:45:47.561Z,15.56
2023-04-26T08:48:55.280Z,15.89
2023-04-26T08:51:57.974Z,16.12
2023-04-26T08:55:00.967Z,16.29
2023-04-26T08:58:03.492Z,16.02
2023-04-26T09:01:06.004Z,15.96
2023-04-26T09:04:08.656Z,16.19
2023-04-26T09:07:11.351Z,16.25
2023-04-26T09:10:14.741Z,16.72
2023-04-26T09:13:17.398Z,16.48
2023-04-26T09:16:20.205Z,16.45
2023-04-26T09:19:52.127Z,16.34
2023-04-26T09:23:06.049Z,16.30
2023-04-26T09:26:19.075Z,16.67
2023-04-26T09:29:21.834Z,16.09
2023-04-26T09:32:24.997Z,16.63
2023-04-26T09:35:29.667Z,17.00
2023-04-26T09:38:32.241Z,16.82
2023-04-26T09:41:47.002Z,16.15
2023-04-26T09:44:49.388Z,15.56
2023-04-26T09:47:51.976Z,15.84
2023-04-26T09:50:59.063Z,16.16
2023-04-26T09:54:01.520Z,16.52
2023-04-26T09:57:04.146Z,16.69
2023-04-26T10:00:10.360Z,16.84
2023-04-26T10:03:12.977Z,17.29
2023-04-26T10:06:16.155Z,17.68
2023-04-26T10:09:18.757Z,17.45
2023-04-26T10:12:21.621Z,16.28
2023-04-26T10:15:24.392Z,16.41
2023-04-26T10:18:27.034Z,17.18
2023-04-26T10:21:32.041Z,17.18
2023-04-26T10:24:37.691Z,17.75
2023-04-26T10:27:46.922Z,18.39
2023-04-26T10:30:58.684Z,18.75
2023-04-26T10:34:22.909Z,18.35
2023-04-26T10:37:25.403Z,17.18
2023-04-26T10:40:34.514Z,18.46
2023-04-26T10:43:42.857Z,18.84
2023-04-26T10:46:49.416Z,19.70
2023-04-26T10:49:51.978Z,19.93
2023-04-26T10:53:02.621Z,20.54
2023-04-26T10:56:05.184Z,20.73
2023-04-26T11:02:58.729Z,21.52
2023-04-26T11:06:01.720Z,21.38
2023-04-26T11:09:04.394Z,20.39
2023-04-26T11:12:13.900Z,20.08
2023-04-26T11:15:16.494Z,20.69
2023-04-26T11:18:20.124Z,18.92
2023-04-26T11:21:22.716Z,18.51
2023-04-26T11:24:25.925Z,20.00
2023-04-26T11:27:28.411Z,19.46
2023-04-26T11:30:31.998Z,19.81
2023-04-26T11:33:34.562Z,21.77
2023-04-26T11:36:38.565Z,22.69
2023-04-26T11:39:41.005Z,21.57
2023-04-26T11:42:46.455Z,19.53
2023-04-26T11:45:49.219Z,18.46
2023-04-26T11:48:51.903Z,18.55
2023-04-26T11:51:54.491Z,17.32
2023-04-26T11:55:04.848Z,16.75
2023-04-26T11:58:14.218Z,16.38
2023-04-26T12:01:26.701Z,16.42
2023-04-26T12:04:30.711Z,17.21
2023-04-26T12:07:37.706Z,17.70
2023-04-26T12:10:40.307Z,18.06
2023-04-26T12:13:42.935Z,18.36
2023-04-26T12:16:46.490Z,18.80
2023-04-26T12:19:49.857Z,17.64
2023-04-26T12:23:07.988Z,16.96
2023-04-26T12:26:12.275Z,16.28
2023-04-26T12:29:14.727Z,16.27
2023-04-26T12:32:17.279Z,18.54
2023-04-26T12:35:19.723Z,17.04
2023-04-26T12:38:22.238Z,16.09
2023-04-26T12:41:24.867Z,15.52
2023-04-26T12:44:27.356Z,15.54
2023-04-26T12:47:31.552Z,15.38
2023-04-26T12:50:34.148Z,15.35
2023-04-26T12:53:36.828Z,15.21
2023-04-26T12:56:43.873Z,15.11
2023-04-26T12:59:46.651Z,18.57
2023-04-26T13:02:49.276Z,18.60
2023-04-26T13:05:52.466Z,19.66
2023-04-26T13:08:54.896Z,18.35
2023-04-26T13:11:57.794Z,17.40
2023-04-26T13:15:01.891Z,16.79
2023-04-26T13:18:04.584Z,16.23
2023-04-26T13:21:07.165Z,17.47
2023-04-26T13:24:09.514Z,20.15
2023-04-26T13:27:12.040Z,22.03
2023-04-26T13:30:14.653Z,19.59
2023-04-26T13:33:17.312Z,18.31
2023-04-26T13:37:04.502Z,17.71
2023-04-26T13:40:25.442Z,18.75
2023-04-26T13:43:27.865Z,17.41
2023-04-26T13:46:30.746Z,17.03
2023-04-26T13:49:33.284Z,19.01
2023-04-26T13:52:37.838Z,19.35
2023-04-26T13:55:41.338Z,19.62
2023-04-26T13:58:47.535Z,18.36
2023-04-26T14:01:54.211Z,16.94
2023-04-26T14:04:58.110Z,16.04
2023-04-26T14:08:01.313Z,15.14
2023-04-26T14:11:07.704Z,15.11
2023-04-26T14:14:10.243Z,15.13
2023-04-26T14:17:12.898Z,15.37
2023-04-26T14:20:15.741Z,15.63
2023-04-26T14:23:18.871Z,17.81
2023-04-26T14:26:21.831Z,18.38
2023-04-26T14:29:24.501Z,18.92
2023-04-26T14:32:27.065Z,19.57
2023-04-26T14:35:29.712Z,17.89
2023-04-26T14:38:32.485Z,16.20
2023-04-26T14:41:35.396Z,15.39
2023-04-26T14:44:38.171Z,14.95
2023-04-26T14:47:40.759Z,14.76
2023-04-26T14:50:44.460Z,14.81
2023-04-26T14:53:47.208Z,15.08
2023-04-26T14:56:49.738Z,15.16
2023-04-26T14:59:52.166Z,15.01
2023-04-26T15:02:54.843Z,14.63
2023-04-26T15:05:57.625Z,14.28
2023-04-26T15:09:00.384Z,13.98
2023-04-26T15:12:04.866Z,14.70
2023-04-26T15:15:07.961Z,14.08
2023-04-26T15:18:10.534Z,14.32
2023-04-26T15:21:17.434Z,14.60
2023-04-26T15:24:20.575Z,14.79
2023-04-26T15:27:24.946Z,14.93
2023-04-26T15:30:27.568Z,14.59
2023-04-26T15:33:30.722Z,14.24
2023-04-26T15:36:33.238Z,13.77
2023-04-26T15:39:35.896Z,13.63
2023-04-26T15:42:38.585Z,13.42
2023-04-26T15:45:41.008Z,13.26
2023-04-26T15:48:44.483Z,13.20
2023-04-26T15:51:47.846Z,13.23
2023-04-26T15:54:50.452Z,13.14
2023-04-26T15:57:52.904Z,13.01
2023-04-26T16:00:55.658Z,13.52
2023-04-26T16:03:58.623Z,13.74
2023-04-26T16:07:01.553Z,13.46
2023-04-26T16:10:05.150Z,13.45
2023-04-26T16:13:07.920Z,13.61
2023-04-26T16:16:11.726Z,13.55
2023-04-26T16:19:14.413Z,13.59
2023-04-26T16:22:20.379Z,13.75
2023-04-26T16:25:23.046Z,13.80
2023-04-26T16:28:25.663Z,13.63
2023-04-26T16:31:28.286Z,13.59
2023-04-26T16:34:30.852Z,13.63
2023-04-26T16:37:33.442Z,13.68
2023-04-26T16:40:36.001Z,13.57
2023-04-26T16:43:38.867Z,13.59
2023-04-26T16:46:41.423Z,13.43
2023-04-26T16:49:44.205Z,13.25
2023-04-26T16:52:47.034Z,13.15
2023-04-26T16:55:50.452Z,13.01
2023-04-26T16:58:53.454Z,12.85
2023-04-26T17:01:56.598Z,12.64
2023-04-26T17:04:59.875Z,12.60
2023-04-26T17:08:02.478Z,12.51
2023-04-26T17:11:05.524Z,12.45
2023-04-26T17:14:07.992Z,12.34
2023-04-26T17:17:10.457Z,12.14
2023-04-26T17:20:13.721Z,12.10
2023-04-26T17:23:17.378Z,12.02
2023-04-26T17:26:19.899Z,11.92
2023-04-26T17:29:22.728Z,11.86
2023-04-26T17:32:25.227Z,11.74
2023-04-26T17:35:27.778Z,11.70
2023-04-26T17:39:04.492Z,11.59
2023-04-26T17:42:06.849Z,11.52
2023-04-26T17:45:12.076Z,11.39
2023-04-26T17:48:17.148Z,11.39
2023-04-26T17:51:19.725Z,11.38
2023-04-26T17:54:24.013Z,11.39
2023-04-26T17:57:30.149Z,11.32
2023-04-26T18:00:33.070Z,11.33
2023-04-26T18:03:36.095Z,11.38
2023-04-26T18:06:40.002Z,11.21
2023-04-26T18:09:42.649Z,11.28
2023-04-26T18:12:45.146Z,11.15
2023-04-26T18:15:47.988Z,11.12
2023-04-26T18:18:50.540Z,11.19
2023-04-26T18:21:54.047Z,11.11
2023-04-26T18:24:56.815Z,11.01
2023-04-26T18:27:59.239Z,11.12
2023-04-26T18:31:01.894Z,11.10
2023-04-26T18:34:04.415Z,10.91
2023-04-26T18:37:07.116Z,10.90
2023-04-26T18:40:10.355Z,10.96
2023-04-26T18:43:12.871Z,10.90
2023-04-26T18:46:15.505Z,10.75
2023-04-26T18:49:17.941Z,10.68
2023-04-26T18:52:20.395Z,10.71
2023-04-26T18:55:23.080Z,10.57
2023-04-26T18:58:25.674Z,10.42
2023-04-26T19:01:28.347Z,10.27
2023-04-26T19:04:31.065Z,10.20
2023-04-26T19:07:33.688Z,10.28
2023-04-26T19:10:36.300Z,10.21
2023-04-26T19:13:42.917Z,10.16
2023-04-26T19:16:45.381Z,10.19
2023-04-26T19:19:47.860Z,10.14
2023-04-26T19:22:50.468Z,10.15
2023-04-26T19:25:53.267Z,10.16
2023-04-26T19:28:56.010Z,10.10
2023-04-26T19:32:00.194Z,10.14
2023-04-26T19:35:06.124Z,10.00
2023-04-26T19:38:10.127Z,10.09
2023-04-26T19:41:13.264Z,9.90
2023-04-26T19:44:15.977Z,9.72
2023-04-26T19:47:18.767Z,9.59
2023-04-26T19:50:21.238Z,9.50
2023-04-26T19:53:23.755Z,9.57
2023-04-26T19:56:26.398Z,9.51
2023-04-26T19:59:28.872Z,9.44
2023-04-26T20:02:31.762Z,9.48
2023-04-26T20:05:34.783Z,9.45
2023-04-26T20:08:37.736Z,9.36
2023-04-26T20:11:40.358Z,9.36
2023-04-26T20:14:43.430Z,9.22
2023-04-26T20:17:46.085Z,9.24
2023-04-26T20:20:49.346Z,9.25
2023-04-26T20:23:52.477Z,9.24
2023-04-26T20:26:56.640Z,9.12
2023-04-26T20:29:59.173Z,9.14
2023-04-26T20:33:02.134Z,8.98
2023-04-26T20:36:05.318Z,9.01
2023-04-26T20:39:09.974Z,8.91
2023-04-26T20:42:12.773Z,8.93
2023-04-26T20:45:16.690Z,8.96
2023-04-26T20:48:19.283Z,8.86
2023-04-26T20:51:21.797Z,8.98
2023-04-26T20:54:25.315Z,8.93
2023-04-26T20:57:28.201Z,8.85
2023-04-26T21:00:30.704Z,9.01
2023-04-26T21:03:34.584Z,8.91
2023-04-26T21:06:37.719Z,8.66
2023-04-26T21:09:40.415Z,8.64
2023-04-26T21:12:42.922Z,8.55
2023-04-26T21:15:45.994Z,8.54
2023-04-26T21:18:48.929Z,8.64
2023-04-26T21:21:51.476Z,8.65
2023-04-26T21:24:54.039Z,8.55
2023-04-26T21:27:58.254Z,8.57
2023-04-26T21:31:04.902Z,8.63
2023-04-26T21:34:07.516Z,8.52
2023-04-26T21:37:10.657Z,8.38
2023-04-26T21:40:13.529Z,8.29
2023-04-26T21:43:17.642Z,8.31
2023-04-26T21:46:20.235Z,8.33
2023-04-26T21:49:22.807Z,8.18
2023-04-26T21:52:25.443Z,8.10
2023-04-26T21:55:27.798Z,8.04
2023-04-26T21:58:30.362Z,7.79
2023-04-26T22:01:32.980Z,7.87
2023-04-26T22:04:36.100Z,7.93
2023-04-26T22:07:38.491Z,7.96
2023-04-26T22:10:40.912Z,8.02
2023-04-26T22:13:43.366Z,7.88
2023-04-26T22:16:46.057Z,7.71
2023-04-26T22:19:48.841Z,7.77
2023-04-26T22:22:51.251Z,7.68
2023-04-26T22:25:53.929Z,7.59
2023-04-26T22:28:56.359Z,7.52
2023-04-26T22:31:59.160Z,7.70
2023-04-26T22:35:01.641Z,7.61
2023-04-26T22:38:04.093Z,7.54
2023-04-26T22:41:07.396Z,7.59
2023-04-26T22:44:09.914Z,7.47
2023-04-26T22:47:12.200Z,7.44
2023-04-26T22:50:14.997Z,7.40
2023-04-26T22:53:17.420Z,7.36
2023-04-26T22:56:19.899Z,7.29
2023-04-26T22:59:22.346Z,7.15
2023-04-26T23:02:25.068Z,7.07
2023-04-26T23:05:27.912Z,7.17
2023-04-26T23:08:30.361Z,7.21
2023-04-26T23:11:33.414Z,7.16
2023-04-26T23:14:36.079Z,7.07
2023-04-26T23:17:38.950Z,7.16
2023-04-26T23:20:41.533Z,7.11
2023-04-26T23:23:44.234Z,7.04
2023-04-26T23:26:46.887Z,7.04
2023-04-26T23:29:50.051Z,7.07
2023-04-26T23:32:52.705Z,6.98
2023-04-26T23:35:55.379Z,6.85
2023-04-26T23:38:58.140Z,6.85
2023-04-26T23:42:00.816Z,6.86
2023-04-26T23:45:04.442Z,6.84
2023-04-26T23:48:08.466Z,6.81
2023-04-26T23:51:11.019Z,6.91
2023-04-26T23:54:13.611Z,6.90
2023-04-26T23:57:16.531Z,6.88
